Back to Top

Language: 

My Weather Underground Personal Weather Station Historical Data with Graphs...

Delerius Weather Station Historical Data
Daily Summary for January 7, 2018 Units:  English    Metric   Both
« Previous Day
Next Day »
Daily Weekly Monthly Yearly Custom
  High: Low: Average:
Temperature: 41.4 °F 26.4 °F 34.4 °F
Dew Point: 34.5 °F 24.9 °F 31.3 °F
Humidity: 94 % 73 % 89 %
Wind Speed: 8.0 mph 0.0 mph 2.9 mph
Wind Gust: 15.0 mph - -
Wind:- - SE
Pressure: 30.49 in 30.30 in -
Precipitation: 0.00 in    
Historical Graphs
 
 
Tabular Data for January 7, 2018
Time Temperature Dew Point Pressure Wind Wind Speed Wind Gust Humidity Rainfall Rate (Hourly) solar Conditions
00:04 34.5 °F 32.2 °F 30.31 in NNW 4.0 mph 8.0 mph 91 % 0.00 in 0 W/m2
00:07 34.5 °F 32.2 °F 30.30 in NNW 5.0 mph 10.0 mph 91 % 0.00 in 0 W/m2
00:12 34.5 °F 32.2 °F 30.30 in NNW 6.0 mph 9.0 mph 91 % 0.00 in 0 W/m2
00:17 34.5 °F 32.2 °F 30.30 in NNW 4.0 mph 7.0 mph 91 % 0.00 in 0 W/m2
00:22 34.5 °F 32.2 °F 30.31 in NNW 4.0 mph 6.0 mph 91 % 0.00 in 0 W/m2
00:27 34.5 °F 32.4 °F 30.30 in North 4.0 mph 10.0 mph 92 % 0.00 in 0 W/m2
00:33 34.5 °F 32.4 °F 30.30 in North 4.0 mph 7.0 mph 92 % 0.00 in 0 W/m2
00:38 34.5 °F 32.4 °F 30.30 in North 3.0 mph 8.0 mph 92 % 0.00 in 0 W/m2
00:43 34.5 °F 32.4 °F 30.31 in North 5.0 mph 9.0 mph 92 % 0.00 in 0 W/m2
00:46 34.7 °F 32.6 °F 30.31 in NNW 5.0 mph 9.0 mph 92 % 0.00 in 0 W/m2
00:48 34.5 °F 32.4 °F 30.31 in North 2.0 mph 6.0 mph 92 % 0.00 in 0 W/m2
00:51 34.5 °F 32.4 °F 30.31 in North 3.0 mph 7.0 mph 92 % 0.00 in 0 W/m2
00:57 34.5 °F 32.4 °F 30.31 in NNE 1.0 mph 3.0 mph 92 % 0.00 in 0 W/m2
01:00 34.5 °F 32.4 °F 30.31 in North 3.0 mph 6.0 mph 92 % 0.00 in 0 W/m2
01:05 34.7 °F 32.6 °F 30.32 in NNW 1.0 mph 5.0 mph 92 % 0.00 in 0 W/m2
01:15 34.5 °F 32.4 °F 30.32 in North 2.0 mph 7.0 mph 92 % 0.00 in 0 W/m2
01:20 34.5 °F 32.4 °F 30.32 in NNE 1.0 mph 3.0 mph 92 % 0.00 in 0 W/m2
01:22 34.5 °F 32.4 °F 30.32 in NNW 1.0 mph 4.0 mph 92 % 0.00 in 0 W/m2
01:25 34.3 °F 32.3 °F 30.32 in North 2.0 mph 6.0 mph 92 % 0.00 in 0 W/m2
01:29 34.5 °F 32.4 °F 30.32 in NNE 2.0 mph 6.0 mph 92 % 0.00 in 0 W/m2
01:34 34.3 °F 32.3 °F 30.32 in North 2.0 mph 5.0 mph 92 % 0.00 in 0 W/m2
01:40 34.3 °F 32.3 °F 30.33 in North 4.0 mph 9.0 mph 92 % 0.00 in 0 W/m2
01:45 34.3 °F 32.3 °F 30.33 in North 5.0 mph 9.0 mph 92 % 0.00 in 0 W/m2
01:50 34.3 °F 32.3 °F 30.33 in NNW 3.0 mph 6.0 mph 92 % 0.00 in 0 W/m2
01:54 34.3 °F 32.3 °F 30.33 in North 2.0 mph 6.0 mph 92 % 0.00 in 0 W/m2
01:59 34.3 °F 32.3 °F 30.33 in NNW 3.0 mph 6.0 mph 92 % 0.00 in 0 W/m2
02:04 34.3 °F 32.3 °F 30.33 in North 6.0 mph 10.0 mph 92 % 0.00 in 0 W/m2
02:09 34.5 °F 32.4 °F 30.33 in North 7.0 mph 12.0 mph 92 % 0.00 in 0 W/m2
02:12 34.7 °F 32.6 °F 30.34 in North 6.0 mph 9.0 mph 92 % 0.00 in 0 W/m2
02:17 34.9 °F 32.8 °F 30.34 in North 4.0 mph 8.0 mph 92 % 0.00 in 0 W/m2
02:22 34.9 °F 32.8 °F 30.34 in North 6.0 mph 10.0 mph 92 % 0.00 in 0 W/m2
02:27 34.9 °F 32.8 °F 30.34 in NNW 5.0 mph 8.0 mph 92 % 0.00 in 0 W/m2
02:32 34.9 °F 32.8 °F 30.34 in North 5.0 mph 8.0 mph 92 % 0.00 in 0 W/m2
02:37 35.1 °F 33.0 °F 30.34 in North 4.0 mph 10.0 mph 92 % 0.00 in 0 W/m2
02:42 35.1 °F 33.0 °F 30.35 in North 5.0 mph 8.0 mph 92 % 0.00 in 0 W/m2
02:47 35.1 °F 33.0 °F 30.35 in North 5.0 mph 10.0 mph 92 % 0.00 in 0 W/m2
02:52 35.1 °F 33.0 °F 30.35 in North 4.0 mph 8.0 mph 92 % 0.00 in 0 W/m2
02:57 35.1 °F 33.0 °F 30.35 in North 4.0 mph 9.0 mph 92 % 0.00 in 0 W/m2
03:02 35.1 °F 33.0 °F 30.35 in North 4.0 mph 7.0 mph 92 % 0.00 in 0 W/m2
03:07 35.1 °F 33.0 °F 30.35 in North 4.0 mph 10.0 mph 92 % 0.00 in 0 W/m2
03:12 35.2 °F 33.1 °F 30.35 in North 3.0 mph 6.0 mph 92 % 0.00 in 0 W/m2
03:17 35.2 °F 33.1 °F 30.35 in North 5.0 mph 8.0 mph 92 % 0.00 in 0 W/m2
03:22 35.1 °F 33.0 °F 30.36 in NNE 1.0 mph 5.0 mph 92 % 0.00 in 0 W/m2
03:27 35.1 °F 33.0 °F 30.36 in North 3.0 mph 6.0 mph 92 % 0.00 in 0 W/m2
03:30 35.1 °F 33.0 °F 30.36 in NNW 4.0 mph 9.0 mph 92 % 0.00 in 0 W/m2
03:35 34.9 °F 32.8 °F 30.36 in North 6.0 mph 9.0 mph 92 % 0.00 in 0 W/m2
03:41 34.9 °F 32.8 °F 30.36 in NNW 6.0 mph 9.0 mph 92 % 0.00 in 0 W/m2
03:46 34.9 °F 32.8 °F 30.36 in NNW 4.0 mph 8.0 mph 92 % 0.00 in 0 W/m2
03:51 34.7 °F 32.6 °F 30.36 in NNW 5.0 mph 10.0 mph 92 % 0.00 in 0 W/m2
03:54 34.5 °F 32.4 °F 30.36 in North 4.0 mph 8.0 mph 92 % 0.00 in 0 W/m2
03:59 34.5 °F 32.4 °F 30.36 in NNW 4.0 mph 6.0 mph 92 % 0.00 in 0 W/m2
04:02 34.3 °F 32.3 °F 30.36 in NNW 4.0 mph 8.0 mph 92 % 0.00 in 0 W/m2
04:07 34.3 °F 32.3 °F 30.36 in NNW 5.0 mph 8.0 mph 92 % 0.00 in 0 W/m2
04:12 34.2 °F 32.1 °F 30.36 in NNW 4.0 mph 8.0 mph 92 % 0.00 in 0 W/m2
04:14 34.2 °F 32.1 °F 30.37 in NNW 3.0 mph 8.0 mph 92 % 0.00 in 0 W/m2
04:19 34.2 °F 32.1 °F 30.36 in NNW 4.0 mph 7.0 mph 92 % 0.00 in 0 W/m2
04:24 34.0 °F 31.9 °F 30.36 in NNW 5.0 mph 8.0 mph 92 % 0.00 in 0 W/m2
04:29 34.0 °F 31.9 °F 30.36 in North 4.0 mph 8.0 mph 92 % 0.00 in 0 W/m2
04:30 34.0 °F 31.9 °F 30.36 in North 4.0 mph 7.0 mph 92 % 0.00 in 0 W/m2
04:35 34.0 °F 31.9 °F 30.36 in North 4.0 mph 8.0 mph 92 % 0.00 in 0 W/m2
04:37 34.0 °F 32.2 °F 30.37 in North 5.0 mph 8.0 mph 93 % 0.00 in 0 W/m2
04:42 34.2 °F 32.3 °F 30.37 in NE 5.0 mph 8.0 mph 93 % 0.00 in 0 W/m2
04:46 34.3 °F 32.5 °F 30.37 in North 5.0 mph 8.0 mph 93 % 0.00 in 0 W/m2
04:51 34.3 °F 32.5 °F 30.37 in NNE 3.0 mph 7.0 mph 93 % 0.00 in 0 W/m2
04:56 34.5 °F 32.7 °F 30.37 in NNE 6.0 mph 10.0 mph 93 % 0.00 in 0 W/m2
04:57 34.5 °F 32.7 °F 30.37 in NNE 5.0 mph 10.0 mph 93 % 0.00 in 0 W/m2
05:02 34.5 °F 32.4 °F 30.37 in North 5.0 mph 8.0 mph 92 % 0.00 in 0 W/m2
05:07 34.7 °F 32.6 °F 30.38 in North 6.0 mph 9.0 mph 92 % 0.00 in 0 W/m2
05:08 34.7 °F 32.6 °F 30.38 in North 6.0 mph 10.0 mph 92 % 0.00 in 0 W/m2
05:09 34.7 °F 32.6 °F 30.38 in North 7.0 mph 10.0 mph 92 % 0.00 in 0 W/m2
05:14 34.7 °F 32.6 °F 30.38 in NNE 6.0 mph 9.0 mph 92 % 0.00 in 0 W/m2
05:15 34.7 °F 32.6 °F 30.38 in NNE 4.0 mph 9.0 mph 92 % 0.00 in 0 W/m2
05:20 34.9 °F 32.8 °F 30.38 in North 5.0 mph 8.0 mph 92 % 0.00 in 0 W/m2
05:23 34.9 °F 32.8 °F 30.38 in North 4.0 mph 9.0 mph 92 % 0.00 in 0 W/m2
05:28 34.7 °F 32.6 °F 30.38 in North 5.0 mph 9.0 mph 92 % 0.00 in 0 W/m2
05:33 34.5 °F 32.4 °F 30.38 in North 7.0 mph 10.0 mph 92 % 0.00 in 0 W/m2
05:38 34.5 °F 32.4 °F 30.39 in North 5.0 mph 9.0 mph 92 % 0.00 in 0 W/m2
05:40 34.5 °F 32.4 °F 30.39 in NNE 5.0 mph 9.0 mph 92 % 0.00 in 0 W/m2
05:43 34.5 °F 32.4 °F 30.39 in North 4.0 mph 8.0 mph 92 % 0.00 in 0 W/m2
05:48 34.3 °F 32.3 °F 30.39 in North 6.0 mph 9.0 mph 92 % 0.00 in 0 W/m2
05:53 34.3 °F 32.3 °F 30.39 in North 6.0 mph 9.0 mph 92 % 0.00 in 0 W/m2
05:58 34.2 °F 32.1 °F 30.39 in North 7.0 mph 9.0 mph 92 % 0.00 in 0 W/m2
06:02 34.3 °F 32.3 °F 30.39 in North 7.0 mph 10.0 mph 92 % 0.00 in 0 W/m2
06:08 34.3 °F 32.5 °F 30.40 in NNE 6.0 mph 10.0 mph 93 % 0.00 in 0 W/m2
06:09 34.3 °F 32.5 °F 30.40 in NNE 5.0 mph 8.0 mph 93 % 0.00 in 0 W/m2
06:14 34.3 °F 32.3 °F 30.40 in North 5.0 mph 9.0 mph 92 % 0.00 in 0 W/m2
06:19 34.3 °F 32.3 °F 30.40 in North 7.0 mph 10.0 mph 92 % 0.00 in 0 W/m2
06:25 34.3 °F 32.3 °F 30.41 in North 5.0 mph 8.0 mph 92 % 0.00 in 0 W/m2
06:28 34.3 °F 32.3 °F 30.41 in North 6.0 mph 9.0 mph 92 % 0.00 in 0 W/m2
06:34 34.3 °F 32.3 °F 30.41 in North 6.0 mph 9.0 mph 92 % 0.00 in 0 W/m2
06:39 34.3 °F 32.3 °F 30.41 in North 6.0 mph 10.0 mph 92 % 0.00 in 0 W/m2
06:44 34.3 °F 32.3 °F 30.41 in North 6.0 mph 9.0 mph 92 % 0.00 in 0 W/m2
06:49 34.3 °F 32.3 °F 30.41 in North 5.0 mph 8.0 mph 92 % 0.00 in 0 W/m2
06:53 34.3 °F 32.3 °F 30.41 in North 3.0 mph 7.0 mph 92 % 0.00 in 0 W/m2
06:58 34.3 °F 32.5 °F 30.42 in NNE 2.0 mph 6.0 mph 93 % 0.00 in 0 W/m2
07:01 34.3 °F 32.5 °F 30.42 in NE 1.0 mph 6.0 mph 93 % 0.00 in 0 W/m2
07:07 34.3 °F 32.5 °F 30.42 in NE 2.0 mph 6.0 mph 93 % 0.00 in 0 W/m2
07:13 34.3 °F 32.5 °F 30.42 in NW 1.0 mph 4.0 mph 93 % 0.00 in 0 W/m2
07:16 34.3 °F 32.5 °F 30.42 in NNE 3.0 mph 6.0 mph 93 % 0.00 in 0 W/m2
07:21 34.3 °F 32.5 °F 30.42 in NNE 1.0 mph 4.0 mph 93 % 0.00 in 0 W/m2
07:25 34.3 °F 32.5 °F 30.43 in Calm   2.0 mph 93 % 0.00 in 0 W/m2
07:30 34.3 °F 32.5 °F 30.43 in NE 2.0 mph 6.0 mph 93 % 0.00 in 0 W/m2
07:35 34.5 °F 32.7 °F 30.43 in Calm   1.0 mph 93 % 0.00 in 0 W/m2
07:40 34.3 °F 32.5 °F 30.43 in Calm   2.0 mph 93 % 0.00 in 0 W/m2
07:45 34.3 °F 32.5 °F 30.43 in North 1.0 mph 4.0 mph 93 % 0.00 in 0 W/m2
07:50 34.3 °F 32.5 °F 30.44 in North 1.0 mph 2.0 mph 93 % 0.00 in 0 W/m2
07:55 34.3 °F 32.3 °F 30.44 in North 2.0 mph 6.0 mph 92 % 0.00 in 0 W/m2
08:00 34.3 °F 32.5 °F 30.44 in NNE 3.0 mph 6.0 mph 93 % 0.00 in 0 W/m2
08:05 34.3 °F 32.5 °F 30.44 in NNE 2.0 mph 6.0 mph 93 % 0.00 in 0 W/m2
08:09 34.2 °F 32.1 °F 30.44 in NE 2.0 mph 6.0 mph 92 % 0.00 in 0 W/m2
08:11 34.2 °F 32.3 °F 30.44 in NNE 3.0 mph 6.0 mph 93 % 0.00 in 0 W/m2
08:16 34.2 °F 32.3 °F 30.45 in NNE 1.0 mph 4.0 mph 93 % 0.00 in 5 W/m2
08:21 34.0 °F 31.9 °F 30.45 in Calm   4.0 mph 92 % 0.00 in 5 W/m2
08:25 33.8 °F 32.0 °F 30.45 in NNE 1.0 mph 5.0 mph 93 % 0.00 in 7 W/m2
08:30 33.8 °F 32.0 °F 30.44 in NNE 3.0 mph 6.0 mph 93 % 0.00 in 9 W/m2
08:34 33.8 °F 32.0 °F 30.45 in Calm   2.0 mph 93 % 0.00 in 11 W/m2
08:39 33.8 °F 32.0 °F 30.45 in NE 3.0 mph 10.0 mph 93 % 0.00 in 12 W/m2
08:44 34.0 °F 32.2 °F 30.46 in NNE 2.0 mph 6.0 mph 93 % 0.00 in 14 W/m2
08:49 34.0 °F 32.2 °F 30.46 in NNE 3.0 mph 6.0 mph 93 % 0.00 in 16 W/m2
08:50 34.0 °F 32.2 °F 30.46 in NNE 3.0 mph 6.0 mph 93 % 0.00 in 16 W/m2
08:55 34.0 °F 32.2 °F 30.46 in NNE 3.0 mph 6.0 mph 93 % 0.00 in 18 W/m2
09:00 34.0 °F 32.2 °F 30.46 in Calm     93 % 0.00 in 19 W/m2
09:02 33.8 °F 32.0 °F 30.46 in Calm   1.0 mph 93 % 0.00 in 19 W/m2
09:07 33.4 °F 31.4 °F 30.46 in NE 1.0 mph 6.0 mph 92 % 0.00 in 21 W/m2
09:12 33.4 °F 31.6 °F 30.47 in NE 1.0 mph 5.0 mph 93 % 0.00 in 23 W/m2
09:17 33.4 °F 31.6 °F 30.47 in NNE 1.0 mph 5.0 mph 93 % 0.00 in 23 W/m2
09:19 33.6 °F 31.8 °F 30.47 in NE 4.0 mph 8.0 mph 93 % 0.00 in 25 W/m2
09:24 33.8 °F 32.0 °F 30.47 in Calm   4.0 mph 93 % 0.00 in 28 W/m2
09:26 33.8 °F 32.0 °F 30.47 in Calm     93 % 0.00 in 28 W/m2
09:31 34.0 °F 32.2 °F 30.47 in NE 3.0 mph 6.0 mph 93 % 0.00 in 120 W/m2
09:35 34.2 °F 32.6 °F 30.47 in NNE 3.0 mph 9.0 mph 94 % 0.00 in 125 W/m2
09:40 34.3 °F 32.8 °F 30.47 in NNE 3.0 mph 7.0 mph 94 % 0.00 in 144 W/m2
09:41 34.5 °F 33.0 °F 30.47 in NNE 4.0 mph 8.0 mph 94 % 0.00 in 144 W/m2
09:46 34.9 °F 33.1 °F 30.48 in North 4.0 mph 9.0 mph 93 % 0.00 in 141 W/m2
09:48 35.1 °F 33.2 °F 30.48 in NE 5.0 mph 9.0 mph 93 % 0.00 in 144 W/m2
09:53 35.4 °F 33.6 °F 30.48 in ENE 2.0 mph 7.0 mph 93 % 0.00 in 151 W/m2
09:54 35.4 °F 33.6 °F 30.48 in ENE 2.0 mph 7.0 mph 93 % 0.00 in 151 W/m2
09:59 35.6 °F 33.5 °F 30.48 in NNE 4.0 mph 8.0 mph 92 % 0.00 in 156 W/m2
10:03 35.8 °F 33.7 °F 30.48 in NNE 4.0 mph 9.0 mph 92 % 0.00 in 162 W/m2
10:08 36.0 °F 33.6 °F 30.48 in North 3.0 mph 7.0 mph 91 % 0.00 in 171 W/m2
10:09 36.0 °F 33.6 °F 30.48 in North 4.0 mph 7.0 mph 91 % 0.00 in 172 W/m2
10:14 36.1 °F 33.8 °F 30.49 in NNE 4.0 mph 7.0 mph 91 % 0.00 in 179 W/m2
10:15 36.1 °F 33.8 °F 30.49 in NNE 4.0 mph 7.0 mph 91 % 0.00 in 181 W/m2
10:20 36.1 °F 33.5 °F 30.49 in NNE 5.0 mph 8.0 mph 90 % 0.00 in 186 W/m2
10:21 36.3 °F 33.7 °F 30.49 in NNE 3.0 mph 7.0 mph 90 % 0.00 in 188 W/m2
10:26 36.5 °F 33.8 °F 30.49 in NE 4.0 mph 9.0 mph 90 % 0.00 in 197 W/m2
10:32 36.7 °F 34.0 °F 30.49 in NNE 5.0 mph 9.0 mph 90 % 0.00 in 200 W/m2
10:37 36.9 °F 34.2 °F 30.49 in NNE 2.0 mph 7.0 mph 90 % 0.00 in 207 W/m2
10:42 37.0 °F 34.1 °F 30.49 in NNE 1.0 mph 7.0 mph 89 % 0.00 in 211 W/m2
10:43 37.0 °F 34.1 °F 30.49 in NNE 2.0 mph 6.0 mph 89 % 0.00 in 213 W/m2
10:48 37.4 °F 34.5 °F 30.49 in NE 4.0 mph 10.0 mph 89 % 0.00 in 220 W/m2
10:53 37.6 °F 34.1 °F 30.49 in NE 5.0 mph 9.0 mph 87 % 0.00 in 225 W/m2
10:58 37.8 °F 33.9 °F 30.49 in NE 6.0 mph 9.0 mph 86 % 0.00 in 230 W/m2
11:00 37.8 °F 33.9 °F 30.49 in NE 7.0 mph 12.0 mph 86 % 0.00 in 230 W/m2
11:05 37.9 °F 33.8 °F 30.49 in NE 6.0 mph 9.0 mph 85 % 0.00 in 234 W/m2
11:10 37.9 °F 33.8 °F 30.49 in NE 5.0 mph 10.0 mph 85 % 0.00 in 237 W/m2
11:15 38.1 °F 34.0 °F 30.49 in ENE 2.0 mph 8.0 mph 85 % 0.00 in 241 W/m2
11:20 38.5 °F 34.1 °F 30.48 in NE 3.0 mph 8.0 mph 84 % 0.00 in 246 W/m2
11:21 38.7 °F 34.2 °F 30.48 in NE 2.0 mph 7.0 mph 84 % 0.00 in 248 W/m2
11:26 38.8 °F 34.1 °F 30.48 in ENE 5.0 mph 8.0 mph 83 % 0.00 in 250 W/m2
11:29 39.0 °F 34.3 °F 30.48 in NE 4.0 mph 7.0 mph 83 % 0.00 in 251 W/m2
11:34 39.2 °F 34.2 °F 30.48 in NE 5.0 mph 8.0 mph 82 % 0.00 in 255 W/m2
11:39 39.4 °F 34.0 °F 30.48 in NE 5.0 mph 10.0 mph 81 % 0.00 in 258 W/m2
11:41 39.4 °F 34.0 °F 30.48 in NE 5.0 mph 8.0 mph 81 % 0.00 in 258 W/m2
11:46 39.6 °F 33.9 °F 30.48 in NE 6.0 mph 9.0 mph 80 % 0.00 in 258 W/m2
11:47 39.6 °F 33.9 °F 30.48 in NE 6.0 mph 9.0 mph 80 % 0.00 in 258 W/m2
11:52 39.7 °F 34.1 °F 30.48 in NE 3.0 mph 11.0 mph 80 % 0.00 in 260 W/m2
11:53 39.7 °F 33.8 °F 30.48 in NNE 6.0 mph 11.0 mph 79 % 0.00 in 262 W/m2
11:58 39.9 °F 33.9 °F 30.47 in ENE 5.0 mph 8.0 mph 79 % 0.00 in 262 W/m2
12:03 40.3 °F 34.0 °F 30.47 in ENE 4.0 mph 7.0 mph 78 % 0.00 in 264 W/m2
12:08 40.5 °F 33.8 °F 30.47 in ENE 6.0 mph 11.0 mph 77 % 0.00 in 264 W/m2
12:13 40.5 °F 33.8 °F 30.47 in ENE 7.0 mph 12.0 mph 77 % 0.00 in 264 W/m2
12:17 40.5 °F 33.8 °F 30.47 in ENE 6.0 mph 9.0 mph 77 % 0.00 in 264 W/m2
12:22 40.6 °F 33.7 °F 30.47 in ENE 8.0 mph 12.0 mph 76 % 0.00 in 264 W/m2
12:24 40.6 °F 33.7 °F 30.47 in ENE 5.0 mph 12.0 mph 76 % 0.00 in 264 W/m2
12:29 40.8 °F 33.8 °F 30.47 in ENE 2.0 mph 6.0 mph 76 % 0.00 in 258 W/m2
12:34 41.2 °F 33.9 °F 30.47 in East 5.0 mph 7.0 mph 75 % 0.00 in 260 W/m2
12:39 41.2 °F 33.5 °F 30.47 in ENE 6.0 mph 11.0 mph 74 % 0.00 in 258 W/m2
12:40 41.2 °F 33.5 °F 30.47 in ENE 6.0 mph 11.0 mph 74 % 0.00 in 257 W/m2
12:45 41.4 °F 33.7 °F 30.47 in East 5.0 mph 9.0 mph 74 % 0.00 in 255 W/m2
12:51 41.4 °F 33.7 °F 30.47 in ENE 5.0 mph 11.0 mph 74 % 0.00 in 251 W/m2
12:52 41.4 °F 33.7 °F 30.47 in East 4.0 mph 10.0 mph 74 % 0.00 in 253 W/m2
12:57 41.4 °F 33.4 °F 30.47 in East 6.0 mph 10.0 mph 73 % 0.00 in 250 W/m2
13:02 41.4 °F 33.7 °F 30.46 in East 5.0 mph 9.0 mph 74 % 0.00 in 248 W/m2
13:07 41.4 °F 33.4 °F 30.46 in ENE 7.0 mph 10.0 mph 73 % 0.00 in 244 W/m2
13:12 41.4 °F 33.7 °F 30.46 in ENE 6.0 mph 9.0 mph 74 % 0.00 in 241 W/m2
13:17 41.4 °F 33.4 °F 30.45 in ENE 6.0 mph 13.0 mph 73 % 0.00 in 237 W/m2
13:22 41.4 °F 33.4 °F 30.45 in ENE 6.0 mph 9.0 mph 73 % 0.00 in 230 W/m2
13:27 41.4 °F 33.4 °F 30.45 in ENE 7.0 mph 11.0 mph 73 % 0.00 in 227 W/m2
13:29 41.4 °F 33.4 °F 30.45 in ENE 7.0 mph 11.0 mph 73 % 0.00 in 227 W/m2
13:32 41.4 °F 33.4 °F 30.45 in ENE 7.0 mph 15.0 mph 73 % 0.00 in 221 W/m2
13:37 41.2 °F 33.2 °F 30.45 in ENE 6.0 mph 9.0 mph 73 % 0.00 in 214 W/m2
13:42 41.2 °F 33.5 °F 30.45 in ENE 6.0 mph 10.0 mph 74 % 0.00 in 209 W/m2
13:47 41.2 °F 33.5 °F 30.45 in ENE 6.0 mph 10.0 mph 74 % 0.00 in 204 W/m2
13:52 41.2 °F 33.5 °F 30.45 in ENE 6.0 mph 11.0 mph 74 % 0.00 in 199 W/m2
13:56 41.2 °F 33.9 °F 30.45 in East 5.0 mph 10.0 mph 75 % 0.00 in 193 W/m2
14:01 41.4 °F 34.0 °F 30.45 in East 6.0 mph 13.0 mph 75 % 0.00 in 188 W/m2
14:06 41.2 °F 33.5 °F 30.45 in ENE 6.0 mph 11.0 mph 74 % 0.00 in 181 W/m2
14:11 40.8 °F 33.5 °F 30.45 in ENE 5.0 mph 11.0 mph 75 % 0.00 in 179 W/m2
14:16 40.8 °F 33.8 °F 30.45 in ENE 6.0 mph 12.0 mph 76 % 0.00 in 163 W/m2
14:21 40.6 °F 33.7 °F 30.45 in ENE 5.0 mph 8.0 mph 76 % 0.00 in 162 W/m2
14:26 40.6 °F 33.7 °F 30.45 in ENE 8.0 mph 12.0 mph 76 % 0.00 in 169 W/m2
14:31 40.5 °F 33.8 °F 30.45 in ENE 4.0 mph 9.0 mph 77 % 0.00 in 156 W/m2
14:36 40.5 °F 33.5 °F 30.45 in East 7.0 mph 11.0 mph 76 % 0.00 in 51 W/m2
14:41 40.3 °F 33.6 °F 30.45 in East 5.0 mph 8.0 mph 77 % 0.00 in 42 W/m2
14:46 40.1 °F 33.5 °F 30.45 in ENE 5.0 mph 10.0 mph 77 % 0.00 in 37 W/m2
14:51 39.9 °F 33.6 °F 30.45 in ENE 4.0 mph 7.0 mph 78 % 0.00 in 35 W/m2
14:54 39.9 °F 33.6 °F 30.45 in ENE 2.0 mph 6.0 mph 78 % 0.00 in 54 W/m2
14:59 39.6 °F 33.3 °F 30.45 in ENE 5.0 mph 8.0 mph 78 % 0.00 in 51 W/m2
15:02 39.6 °F 33.3 °F 30.45 in ENE 5.0 mph 9.0 mph 78 % 0.00 in 79 W/m2
15:08 39.4 °F 33.4 °F 30.45 in ENE 6.0 mph 8.0 mph 79 % 0.00 in 26 W/m2
15:11 39.2 °F 33.2 °F 30.45 in ENE 4.0 mph 7.0 mph 79 % 0.00 in 28 W/m2
15:16 39.0 °F 33.1 °F 30.45 in ENE 5.0 mph 9.0 mph 79 % 0.00 in 23 W/m2
15:20 38.8 °F 32.9 °F 30.45 in ENE 4.0 mph 9.0 mph 79 % 0.00 in 19 W/m2
15:25 38.8 °F 32.9 °F 30.45 in ENE 6.0 mph 8.0 mph 79 % 0.00 in 18 W/m2
15:30 38.7 °F 33.0 °F 30.46 in ENE 4.0 mph 7.0 mph 80 % 0.00 in 16 W/m2
15:34 38.5 °F 32.8 °F 30.45 in ENE 5.0 mph 8.0 mph 80 % 0.00 in 14 W/m2
15:40 38.1 °F 32.5 °F 30.45 in ENE 5.0 mph 8.0 mph 80 % 0.00 in 12 W/m2
15:45 37.9 °F 32.6 °F 30.46 in ENE 4.0 mph 7.0 mph 81 % 0.00 in 12 W/m2
15:50 37.9 °F 32.6 °F 30.46 in ENE 3.0 mph 7.0 mph 81 % 0.00 in 11 W/m2
15:56 37.8 °F 32.8 °F 30.46 in NE 3.0 mph 7.0 mph 82 % 0.00 in 9 W/m2
15:58 37.6 °F 32.6 °F 30.46 in NE 1.0 mph 5.0 mph 82 % 0.00 in 7 W/m2
16:03 37.4 °F 32.4 °F 30.46 in ENE 2.0 mph 5.0 mph 82 % 0.00 in 7 W/m2
16:08 37.2 °F 32.2 °F 30.46 in NE 3.0 mph 5.0 mph 82 % 0.00 in 5 W/m2
16:13 37.0 °F 32.4 °F 30.46 in ENE 5.0 mph 8.0 mph 83 % 0.00 in 0 W/m2
16:18 37.0 °F 32.4 °F 30.46 in ENE 3.0 mph 6.0 mph 83 % 0.00 in 0 W/m2
16:21 37.0 °F 32.4 °F 30.46 in East 2.0 mph 4.0 mph 83 % 0.00 in 0 W/m2
16:26 36.9 °F 32.2 °F 30.46 in ESE 1.0 mph 3.0 mph 83 % 0.00 in 0 W/m2
16:31 36.7 °F 32.3 °F 30.46 in Calm     84 % 0.00 in 0 W/m2
16:36 36.3 °F 31.9 °F 30.46 in Calm     84 % 0.00 in 0 W/m2
16:41 36.0 °F 31.6 °F 30.46 in Calm     84 % 0.00 in 0 W/m2
16:42 36.0 °F 31.6 °F 30.46 in Calm     84 % 0.00 in 0 W/m2
16:47 35.6 °F 31.2 °F 30.46 in Calm     84 % 0.00 in 0 W/m2
16:52 35.2 °F 31.2 °F 30.46 in Calm     85 % 0.00 in 0 W/m2
16:56 35.1 °F 31.0 °F 30.46 in Calm     85 % 0.00 in 0 W/m2
17:01 34.9 °F 31.1 °F 30.47 in Calm   2.0 mph 86 % 0.00 in 0 W/m2
17:06 34.9 °F 31.4 °F 30.47 in ENE 1.0 mph 4.0 mph 87 % 0.00 in 0 W/m2
17:08 34.9 °F 31.4 °F 30.47 in NE 1.0 mph 4.0 mph 87 % 0.00 in 0 W/m2
17:13 34.9 °F 31.4 °F 30.47 in Calm   2.0 mph 87 % 0.00 in 0 W/m2
17:18 34.5 °F 31.0 °F 30.47 in Calm     87 % 0.00 in 0 W/m2
17:21 34.5 °F 31.0 °F 30.47 in Calm     87 % 0.00 in 0 W/m2
17:24 34.3 °F 30.9 °F 30.47 in Calm     87 % 0.00 in 0 W/m2
17:29 34.3 °F 31.2 °F 30.47 in NE 1.0 mph 3.0 mph 88 % 0.00 in 0 W/m2
17:35 34.5 °F 31.3 °F 30.47 in NNE 2.0 mph 6.0 mph 88 % 0.00 in 0 W/m2
17:37 34.5 °F 31.3 °F 30.47 in NNE 2.0 mph 5.0 mph 88 % 0.00 in 0 W/m2
17:42 34.7 °F 31.5 °F 30.47 in NE 2.0 mph 5.0 mph 88 % 0.00 in 0 W/m2
17:46 34.7 °F 31.5 °F 30.47 in NNE 1.0 mph 4.0 mph 88 % 0.00 in 0 W/m2
17:51 34.5 °F 31.3 °F 30.47 in ENE 1.0 mph 5.0 mph 88 % 0.00 in 0 W/m2
17:56 34.5 °F 31.3 °F 30.47 in Calm   1.0 mph 88 % 0.00 in 0 W/m2
17:59 34.3 °F 31.2 °F 30.47 in Calm   1.0 mph 88 % 0.00 in 0 W/m2
18:04 34.2 °F 30.7 °F 30.47 in East 1.0 mph 5.0 mph 87 % 0.00 in 0 W/m2
18:09 34.0 °F 30.8 °F 30.47 in Calm   2.0 mph 88 % 0.00 in 0 W/m2
18:14 33.6 °F 30.2 °F 30.47 in Calm   1.0 mph 87 % 0.00 in 0 W/m2
18:15 33.6 °F 30.2 °F 30.47 in Calm   1.0 mph 87 % 0.00 in 0 W/m2
18:20 33.3 °F 30.1 °F 30.47 in Calm   2.0 mph 88 % 0.00 in 0 W/m2
18:25 33.1 °F 29.9 °F 30.46 in Calm   2.0 mph 88 % 0.00 in 0 W/m2
18:30 33.1 °F 30.2 °F 30.47 in Calm   2.0 mph 89 % 0.00 in 0 W/m2
18:31 33.1 °F 30.2 °F 30.47 in Calm   1.0 mph 89 % 0.00 in 0 W/m2
18:36 32.5 °F 29.4 °F 30.47 in Calm     88 % 0.00 in 0 W/m2
18:37 32.5 °F 29.4 °F 30.47 in Calm     88 % 0.00 in 0 W/m2
18:42 32.2 °F 29.0 °F 30.46 in Calm     88 % 0.00 in 0 W/m2
18:47 31.6 °F 28.5 °F 30.46 in Calm     88 % 0.00 in 0 W/m2
18:52 31.3 °F 28.1 °F 30.46 in Calm     88 % 0.00 in 0 W/m2
18:54 31.3 °F 28.1 °F 30.47 in Calm     88 % 0.00 in 0 W/m2
18:59 30.9 °F 28.1 °F 30.47 in Calm     89 % 0.00 in 0 W/m2
19:04 30.7 °F 27.9 °F 30.47 in Calm     89 % 0.00 in 0 W/m2
19:09 30.6 °F 28.0 °F 30.47 in Calm     90 % 0.00 in 0 W/m2
19:14 30.4 °F 27.8 °F 30.47 in Calm     90 % 0.00 in 0 W/m2
19:20 30.0 °F 27.4 °F 30.46 in Calm   2.0 mph 90 % 0.00 in 0 W/m2
19:25 29.8 °F 27.3 °F 30.47 in Calm   2.0 mph 90 % 0.00 in 0 W/m2
19:26 29.8 °F 27.3 °F 30.47 in Calm   2.0 mph 90 % 0.00 in 0 W/m2
19:27 29.8 °F 27.3 °F 30.47 in Calm   2.0 mph 90 % 0.00 in 0 W/m2
19:32 29.7 °F 27.4 °F 30.47 in NW 1.0 mph 2.0 mph 91 % 0.00 in 0 W/m2
19:34 29.5 °F 27.2 °F 30.46 in Calm     91 % 0.00 in 0 W/m2
19:39 29.5 °F 27.2 °F 30.47 in Calm   1.0 mph 91 % 0.00 in 0 W/m2
19:43 29.3 °F 27.0 °F 30.47 in Calm     91 % 0.00 in 0 W/m2
19:48 29.1 °F 26.8 °F 30.47 in Calm   1.0 mph 91 % 0.00 in 0 W/m2
19:53 29.1 °F 27.1 °F 30.47 in Calm     92 % 0.00 in 0 W/m2
19:56 29.1 °F 27.1 °F 30.47 in Calm     92 % 0.00 in 0 W/m2
20:00 29.1 °F 27.1 °F 30.47 in Calm     92 % 0.00 in 0 W/m2
20:01 29.1 °F 27.1 °F 30.47 in Calm     92 % 0.00 in 0 W/m2
20:06 28.8 °F 26.7 °F 30.47 in Calm     92 % 0.00 in 0 W/m2
20:12 28.8 °F 26.7 °F 30.47 in Calm     92 % 0.00 in 0 W/m2
20:17 28.6 °F 26.6 °F 30.47 in Calm     92 % 0.00 in 0 W/m2
20:22 28.6 °F 26.6 °F 30.47 in Calm   1.0 mph 92 % 0.00 in 0 W/m2
20:27 28.4 °F 26.4 °F 30.47 in Calm     92 % 0.00 in 0 W/m2
20:32 28.2 °F 26.5 °F 30.47 in Calm   2.0 mph 93 % 0.00 in 0 W/m2
20:35 28.2 °F 26.5 °F 30.46 in Calm   4.0 mph 93 % 0.00 in 0 W/m2
20:45 28.4 °F 26.6 °F 30.46 in Calm     93 % 0.00 in 0 W/m2
20:51 28.2 °F 26.5 °F 30.46 in Calm     93 % 0.00 in 0 W/m2
20:55 28.2 °F 26.5 °F 30.46 in Calm     93 % 0.00 in 0 W/m2
21:00 28.0 °F 26.3 °F 30.46 in Calm     93 % 0.00 in 0 W/m2
21:01 28.0 °F 26.3 °F 30.46 in Calm     93 % 0.00 in 0 W/m2
21:06 27.9 °F 26.1 °F 30.46 in Calm   2.0 mph 93 % 0.00 in 0 W/m2
21:11 27.9 °F 26.1 °F 30.46 in SW 1.0 mph 4.0 mph 93 % 0.00 in 0 W/m2
21:16 27.9 °F 26.1 °F 30.46 in Calm     93 % 0.00 in 0 W/m2
21:21 28.0 °F 26.5 °F 30.46 in Calm     94 % 0.00 in 0 W/m2
21:25 28.0 °F 26.5 °F 30.46 in SW 1.0 mph 2.0 mph 94 % 0.00 in 0 W/m2
21:30 27.9 °F 26.1 °F 30.46 in SW 1.0 mph 2.0 mph 93 % 0.00 in 0 W/m2
21:35 27.9 °F 26.1 °F 30.46 in Calm   1.0 mph 93 % 0.00 in 0 W/m2
21:41 27.7 °F 25.9 °F 30.46 in SW 1.0 mph 3.0 mph 93 % 0.00 in 0 W/m2
21:46 27.5 °F 25.7 °F 30.46 in SW 2.0 mph 4.0 mph 93 % 0.00 in 0 W/m2
21:47 27.5 °F 25.7 °F 30.46 in SW 2.0 mph 4.0 mph 93 % 0.00 in 0 W/m2
21:51 27.7 °F 26.2 °F 30.46 in Calm     94 % 0.00 in 0 W/m2
21:56 27.7 °F 26.2 °F 30.46 in Calm     94 % 0.00 in 0 W/m2
22:01 27.5 °F 25.7 °F 30.46 in Calm   2.0 mph 93 % 0.00 in 0 W/m2
22:02 27.5 °F 25.7 °F 30.46 in Calm   2.0 mph 93 % 0.00 in 0 W/m2
22:07 27.3 °F 25.6 °F 30.45 in Calm     93 % 0.00 in 0 W/m2
22:09 27.3 °F 25.6 °F 30.46 in Calm     93 % 0.00 in 0 W/m2
22:14 27.3 °F 25.8 °F 30.45 in SW 1.0 mph 2.0 mph 94 % 0.00 in 0 W/m2
22:17 27.3 °F 25.8 °F 30.45 in Calm   1.0 mph 94 % 0.00 in 0 W/m2
22:22 27.3 °F 25.8 °F 30.45 in Calm   1.0 mph 94 % 0.00 in 0 W/m2
22:28 27.5 °F 26.0 °F 30.45 in Calm     94 % 0.00 in 0 W/m2
22:33 27.5 °F 26.0 °F 30.45 in Calm     94 % 0.00 in 0 W/m2
22:38 27.5 °F 26.0 °F 30.45 in Calm     94 % 0.00 in 0 W/m2
22:44 27.3 °F 25.8 °F 30.45 in Calm     94 % 0.00 in 0 W/m2
22:48 27.0 °F 25.5 °F 30.45 in Calm     94 % 0.00 in 0 W/m2
22:50 27.0 °F 25.5 °F 30.45 in Calm     94 % 0.00 in 0 W/m2
22:55 26.8 °F 25.0 °F 30.45 in Calm   2.0 mph 93 % 0.00 in 0 W/m2
23:05 26.4 °F 24.9 °F 30.45 in SW 1.0 mph 4.0 mph 94 % 0.00 in 0 W/m2
23:10 26.4 °F 24.9 °F 30.45 in SW 2.0 mph 5.0 mph 94 % 0.00 in 0 W/m2
23:15 26.4 °F 24.9 °F 30.45 in Calm   2.0 mph 94 % 0.00 in 0 W/m2
23:19 26.4 °F 24.9 °F 30.45 in SW 1.0 mph 2.0 mph 94 % 0.00 in 0 W/m2
23:24 26.6 °F 25.1 °F 30.44 in SW 1.0 mph 5.0 mph 94 % 0.00 in 0 W/m2
23:29 26.8 °F 25.3 °F 30.44 in Calm     94 % 0.00 in 0 W/m2
23:31 26.8 °F 25.3 °F 30.44 in Calm     94 % 0.00 in 0 W/m2
23:36 26.8 °F 25.3 °F 30.44 in Calm     94 % 0.00 in 0 W/m2
23:38 26.8 °F 25.3 °F 30.44 in Calm     94 % 0.00 in 0 W/m2
23:43 26.6 °F 25.1 °F 30.44 in Calm     94 % 0.00 in 0 W/m2
23:46 26.6 °F 25.1 °F 30.44 in Calm     94 % 0.00 in 0 W/m2
23:47 26.6 °F 25.1 °F 30.44 in Calm     94 % 0.00 in 0 W/m2
23:53 26.4 °F 24.9 °F 30.44 in Calm   1.0 mph 94 % 0.00 in 0 W/m2
Delerius-Weather
Compliments of Weather Underground - 2.5 mb

Data updates at regular intervals.